Aeroporto :
LOGIN :

Iscrizione | Disclaimer

   EN    FR    IT 

 










Sommario :    VFR   VFR Marginale   IFR   IFR Intensivo   IFR Molto Intensivo
Visibilità : 
Base nubi : 
>= 8 km
>= 3000ft
5 / 8 km
1000 / 3000 ft
1500m / 5 km
500 / 1000 ft
800 / 1500m
200 / 500 ft
< 800m
< 200 ft
Simboli :   Temporali  Nebbia  Neve Forte  Precipitazioni Forti  Vento > 20 kt
SIGMETs :   Varie  Temporali  Ghiacco  Turbolenza  Onda orograficha  Ceneri Vulcaniche






- Altitudine del aeroporto : 2302 ft


LEAB - Albacete

ULTIMO METAR :
  • 310930Z 30003KT CAVOK 11/07 Q1028 NOSIG

METARs OBSOLETI :
  • 310900Z VRB02KT CAVOK 11/07 Q1028 NOSIG
  • 310830Z 00000KT CAVOK 10/07 Q1028 NOSIG
  • 310800Z 00000KT CAVOK 08/07 Q1028 NOSIG
  • 310730Z 20003KT 160V230 CAVOK 06/06 Q1027 NOSIG
  • 310700Z 20002KT CAVOK 05/05 Q1027 NOSIG

TAF TAF LEAB
Valido dal 31 a 06 ore il 01 a 06 ore UTC


310500Z 3106/0106 VRB05KT CAVOK TX24/3115Z TN06/3106Z
PROB40
TEMPO 3106/3109 2500 BR NSC
BECMG 3111/3112 34008KT
BECMG 3118/3119 VRB04KT



MetMap, La meteo Aeronautica in un colpo d'occhio ! - Copyright ORBIFLY Dicembre 2007 - Disclaimer

ORBIFLY MET'MAP TEAM :

Programmazione e sviluppo : Alexandra Zaïnal
Concezione : Baudouin d'Aumeries
Aiuto per la programmazione : Marc-Olivier Méhu
Supporto tecnico e logistico : Manuel Goepfert
Aiuto per la traduzione : Arnaldo La Scala

Contatto : metmap@orbifly.com




FONTI E CREDITI :

   NOAA